Terminal Aerodrome Forecast
Issued by NWS Northern Indiana

Home | Current Version | Previous Version | Graphics & Text | Print | Product List | Glossary On
Versions: 1 2 3 4 5 6 7 8 9 10 11 12 13
000
FTUS43 KIWX 171004 AAA
TAFFWA
TAF AMD
KFWA 171004Z 1710/1806 20006KT P6SM BKN008 BKN050
     FM171200 24007KT P6SM SCT010 BKN050
      TEMPO 1712/1715 5SM BR OVC010
     FM171900 26011KT P6SM BKN050=

USA.gov is the U.S. government's official web portal to all federal, state and local government web resources and services.